UTN weather

Public forecast

Using degrees Celsius for public forecast. Weather courtesy of forecast.io.

Current aviation weather report (METAR) for Pierre Van Ryneveld Airport

Retrieved 2020/08/11 20:00 UTC (58 minutes ago):

FAUP 112000Z AUTO 26004KT //// // ////// 09/M06 Q1022

Aviation forecast (TAF) for Pierre Van Ryneveld Airport

Retrieved 2020/08/11 18:00 UTC (3 hours ago):

TAF FAUP 111600Z 1118/1218 VRB03KT CAVOK TX21/1213Z TN01/1204Z